Time;durP1;ratioP1;P1;durP2;ratioP2;P2;SDS_P1;SDS_P2;PMS_P1;PMS_P2;Temp;Humidity;BMP_temperature;BMP_pressure;BME280_temperature;BME280_humidity;BME280_pressure;Samples;Min_cycle;Max_cycle;Signal;HPM_P1;HPM_P2
2022/03/19 00:00:42;;;;;;;1.90;1.10;;;;;;;;;;4927960;29;20981;-63
2022/03/19 00:03:09;;;;;;;2.73;0.97;;;;;;;;;;4927610;29;20322;-63
2022/03/19 00:05:36;;;;;;;1.20;1.13;;;;;;;;;;4925872;29;20219;-63
2022/03/19 00:08:04;;;;;;;0.87;0.87;;;;;;;;;;4927798;29;20323;-63
2022/03/19 00:10:31;;;;;;;2.33;1.20;;;;;;;;;;4927774;29;20222;-63
2022/03/19 00:12:58;;;;;;;1.50;0.83;;;;;;;;;;4929819;29;20204;-63
2022/03/19 00:15:25;;;;;;;4.93;1.10;;;;;;;;;;4924383;29;20210;-63
2022/03/19 00:17:54;;;;;;;1.00;1.00;;;;;;;;;;4918998;29;20204;-64
2022/03/19 00:20:21;;;;;;;1.10;1.00;;;;;;;;;;4918904;29;20204;-64
2022/03/19 00:22:48;;;;;;;3.40;1.00;;;;;;;;;;4921492;29;20224;-64
2022/03/19 00:25:15;;;;;;;1.03;1.03;;;;;;;;;;4919418;29;20216;-64
2022/03/19 00:27:42;;;;;;;0.70;0.70;;;;;;;;;;4921852;29;20225;-61
2022/03/19 00:30:10;;;;;;;4.30;1.00;;;;;;;;;;4920358;29;20230;-64
2022/03/19 00:32:38;;;;;;;0.33;0.33;;;;;;;;;;4920071;29;20218;-61
2022/03/19 00:35:07;;;;;;;5.43;1.20;;;;;;;;;;4922535;29;20215;-64
2022/03/19 00:37:42;;;;;;;0.57;0.57;;;;;;;;;;4921465;29;20240;-62
2022/03/19 00:40:10;;;;;;;1.20;1.10;;;;;;;;;;4921218;29;20212;-63
2022/03/19 00:42:37;;;;;;;0.83;0.50;;;;;;;;;;4919826;29;20259;-62
2022/03/19 00:45:04;;;;;;;1.00;1.00;;;;;;;;;;4921041;29;20208;-62
2022/03/19 00:47:31;;;;;;;0.77;0.77;;;;;;;;;;4921556;29;20220;-63
2022/03/19 00:49:58;;;;;;;0.90;0.83;;;;;;;;;;4920143;29;20208;-62
2022/03/19 00:52:27;;;;;;;3.03;0.90;;;;;;;;;;4920593;29;20213;-62
2022/03/19 00:54:54;;;;;;;3.80;0.93;;;;;;;;;;4921938;29;20578;-62
2022/03/19 00:57:21;;;;;;;0.90;0.80;;;;;;;;;;4924295;29;20235;-62
2022/03/19 00:59:48;;;;;;;0.30;0.30;;;;;;;;;;4922671;29;20632;-62
2022/03/19 01:02:15;;;;;;;0.50;0.50;;;;;;;;;;4921805;29;20227;-63
2022/03/19 01:04:42;;;;;;;1.60;0.63;;;;;;;;;;4923484;29;20207;-62
2022/03/19 01:07:09;;;;;;;0.63;0.63;;;;;;;;;;4924082;29;20604;-61
2022/03/19 01:09:38;;;;;;;0.77;0.77;;;;;;;;;;4923367;29;20715;-61
2022/03/19 01:12:05;;;;;;;0.77;0.50;;;;;;;;;;4925831;29;20223;-61
2022/03/19 01:14:32;;;;;;;3.77;0.70;;;;;;;;;;4923612;29;20207;-63
2022/03/19 01:16:59;;;;;;;0.67;0.40;;;;;;;;;;4926525;29;20218;-61
2022/03/19 01:22:07;;;;;;;0.60;0.60;;;;;;;;;;4925411;29;20234;-62
2022/03/19 01:24:34;;;;;;;1.07;0.50;;;;;;;;;;4925696;29;20666;-61
2022/03/19 01:27:03;;;;;;;0.80;0.80;;;;;;;;;;4928621;29;20216;-61
2022/03/19 01:29:30;;;;;;;0.70;0.70;;;;;;;;;;4925484;29;20232;-61
2022/03/19 01:31:57;;;;;;;0.60;0.60;;;;;;;;;;4932421;29;20211;-61
2022/03/19 01:34:24;;;;;;;0.50;0.43;;;;;;;;;;4934611;29;20243;-61
2022/03/19 01:36:52;;;;;;;1.83;0.83;;;;;;;;;;4934555;29;20219;-62
2022/03/19 01:39:19;;;;;;;2.27;0.90;;;;;;;;;;4916416;29;20291;-61
2022/03/19 01:41:46;;;;;;;0.87;0.87;;;;;;;;;;4929983;29;20208;-62
2022/03/19 01:44:19;;;;;;;0.43;0.43;;;;;;;;;;4935035;29;20228;-62
2022/03/19 01:46:56;;;;;;;0.93;0.73;;;;;;;;;;4934721;29;20306;-61
2022/03/19 01:49:23;;;;;;;0.57;0.50;;;;;;;;;;4934976;29;20212;-62
2022/03/19 01:51:50;;;;;;;1.87;0.77;;;;;;;;;;4934451;29;20219;-61
2022/03/19 01:54:18;;;;;;;0.80;0.80;;;;;;;;;;4935096;29;20645;-62
2022/03/19 01:56:46;;;;;;;0.37;0.27;;;;;;;;;;4934299;29;20208;-61
2022/03/19 01:59:14;;;;;;;2.67;0.93;;;;;;;;;;4934670;29;20564;-61
2022/03/19 02:01:44;;;;;;;1.43;0.90;;;;;;;;;;4934316;29;20306;-62
2022/03/19 02:04:11;;;;;;;0.20;0.20;;;;;;;;;;4934686;29;20293;-62
2022/03/19 02:06:38;;;;;;;5.50;0.87;;;;;;;;;;4933842;29;20214;-62
2022/03/19 02:09:05;;;;;;;0.80;0.80;;;;;;;;;;4934446;29;20239;-61
2022/03/19 02:11:32;;;;;;;0.27;0.27;;;;;;;;;;4934206;29;20670;-61
2022/03/19 02:13:59;;;;;;;3.10;0.83;;;;;;;;;;4934642;29;20650;-62
2022/03/19 02:16:26;;;;;;;0.97;0.80;;;;;;;;;;4933921;29;20208;-62
2022/03/19 02:18:55;;;;;;;1.90;0.70;;;;;;;;;;4934161;29;20234;-62
2022/03/19 02:21:22;;;;;;;0.40;0.27;;;;;;;;;;4934236;29;20219;-63
2022/03/19 02:26:44;;;;;;;2.20;1.17;;;;;;;;;;4934311;29;20298;-61
2022/03/19 02:29:11;;;;;;;1.27;0.53;;;;;;;;;;4933782;29;20228;-64
2022/03/19 02:31:40;;;;;;;5.03;0.70;;;;;;;;;;4932887;29;20259;-61
2022/03/19 02:34:08;;;;;;;0.93;0.80;;;;;;;;;;4933541;29;20262;-61
2022/03/19 02:36:36;;;;;;;2.20;1.00;;;;;;;;;;4933825;29;20219;-61
2022/03/19 02:39:10;;;;;;;1.73;1.27;;;;;;;;;;4933620;29;20305;-61
2022/03/19 02:41:41;;;;;;;2.07;0.93;;;;;;;;;;4934159;29;20199;-62
2022/03/19 02:44:09;;;;;;;1.27;1.10;;;;;;;;;;4933779;29;20834;-62
2022/03/19 02:46:40;;;;;;;2.77;0.80;;;;;;;;;;4932803;29;20216;-61
2022/03/19 02:49:08;;;;;;;0.73;0.73;;;;;;;;;;4933141;29;20219;-61
2022/03/19 02:51:36;;;;;;;0.53;0.53;;;;;;;;;;4933541;29;20282;-62
2022/03/19 02:54:06;;;;;;;3.27;0.60;;;;;;;;;;4933607;29;20203;-62
2022/03/19 02:56:35;;;;;;;1.37;1.07;;;;;;;;;;4933601;29;20587;-61
2022/03/19 02:59:06;;;;;;;1.67;0.83;;;;;;;;;;4933436;29;20222;-61
2022/03/19 03:01:33;;;;;;;1.17;0.60;;;;;;;;;;4933190;29;20214;-62
2022/03/19 03:04:00;;;;;;;1.23;0.70;;;;;;;;;;4933449;29;20803;-62
2022/03/19 03:06:28;;;;;;;1.13;0.43;;;;;;;;;;4932781;29;20222;-63
2022/03/19 03:08:55;;;;;;;2.83;1.00;;;;;;;;;;4933402;29;20962;-62
2022/03/19 03:11:22;;;;;;;0.53;0.53;;;;;;;;;;4933227;29;21005;-62
2022/03/19 03:13:51;;;;;;;4.43;0.57;;;;;;;;;;4932134;29;20208;-64
2022/03/19 03:16:18;;;;;;;2.33;0.90;;;;;;;;;;4932854;29;20237;-63
2022/03/19 03:18:45;;;;;;;3.77;0.73;;;;;;;;;;4933040;29;20208;-63
2022/03/19 03:21:13;;;;;;;0.70;0.70;;;;;;;;;;4932618;29;20293;-63
2022/03/19 03:23:40;;;;;;;2.80;1.07;;;;;;;;;;4932423;29;20231;-63
2022/03/19 03:26:07;;;;;;;0.67;0.67;;;;;;;;;;4932400;29;20225;-63
2022/03/19 03:28:34;;;;;;;0.90;0.90;;;;;;;;;;4932170;29;20212;-63
2022/03/19 03:31:02;;;;;;;0.83;0.20;;;;;;;;;;4932052;29;20247;-63
2022/03/19 03:33:30;;;;;;;1.43;0.97;;;;;;;;;;4913434;29;20248;-63
2022/03/19 03:35:57;;;;;;;2.30;0.77;;;;;;;;;;4926405;29;20222;-61
2022/03/19 03:38:24;;;;;;;1.13;0.90;;;;;;;;;;4931607;29;20211;-61
2022/03/19 03:40:51;;;;;;;0.50;0.50;;;;;;;;;;4931951;29;20279;-61
2022/03/19 03:43:18;;;;;;;0.83;0.80;;;;;;;;;;4931620;29;20325;-61
2022/03/19 03:45:45;;;;;;;0.70;0.70;;;;;;;;;;4931139;29;20223;-61
2022/03/19 03:48:14;;;;;;;2.73;1.13;;;;;;;;;;4931828;29;20227;-61
2022/03/19 03:50:41;;;;;;;0.80;0.80;;;;;;;;;;4931436;29;20696;-61
2022/03/19 03:53:08;;;;;;;2.77;0.80;;;;;;;;;;4932040;29;20630;-63
2022/03/19 03:55:37;;;;;;;0.60;0.60;;;;;;;;;;4931746;29;20222;-62
2022/03/19 03:58:04;;;;;;;0.80;0.80;;;;;;;;;;4931728;29;20239;-64
2022/03/19 04:00:32;;;;;;;3.70;1.00;;;;;;;;;;4931658;29;20301;-62
2022/03/19 04:02:59;;;;;;;2.93;1.23;;;;;;;;;;4931463;29;20619;-62
2022/03/19 04:05:28;;;;;;;4.67;1.23;;;;;;;;;;4932087;29;20211;-62
2022/03/19 04:07:55;;;;;;;2.90;1.10;;;;;;;;;;4931215;29;20219;-62
2022/03/19 04:10:22;;;;;;;1.50;0.60;;;;;;;;;;4931431;29;20215;-63
2022/03/19 04:12:49;;;;;;;0.60;0.60;;;;;;;;;;4931403;29;20226;-62
2022/03/19 04:15:18;;;;;;;2.00;0.80;;;;;;;;;;4931385;29;20278;-62
2022/03/19 04:17:45;;;;;;;1.60;1.30;;;;;;;;;;4925213;29;20305;-63
2022/03/19 04:20:14;;;;;;;1.03;0.93;;;;;;;;;;4932197;29;20690;-63
2022/03/19 04:22:43;;;;;;;0.70;0.70;;;;;;;;;;4931543;29;20712;-63
2022/03/19 04:25:11;;;;;;;1.50;1.13;;;;;;;;;;4932215;29;20593;-63
2022/03/19 04:27:38;;;;;;;2.30;0.80;;;;;;;;;;4924103;29;20263;-63
2022/03/19 04:30:06;;;;;;;3.97;0.83;;;;;;;;;;4931594;29;20270;-63
2022/03/19 04:32:33;;;;;;;0.97;0.97;;;;;;;;;;4931458;29;20678;-63
2022/03/19 04:36:29;;;;;;;2.90;0.73;;;;;;;;;;4932207;29;20250;-63
2022/03/19 04:37:49;;;;;;;1.07;0.97;;;;;;;;;;4931835;29;20218;-62
2022/03/19 04:40:16;;;;;;;0.83;0.83;;;;;;;;;;4931891;29;20649;-62
2022/03/19 04:42:43;;;;;;;0.80;0.80;;;;;;;;;;4931720;29;20217;-62
2022/03/19 04:45:11;;;;;;;1.17;1.03;;;;;;;;;;4931253;29;20321;-62
2022/03/19 04:47:38;;;;;;;1.13;0.83;;;;;;;;;;4931956;29;20268;-62
2022/03/19 04:50:05;;;;;;;1.60;1.03;;;;;;;;;;4931512;29;20258;-62
2022/03/19 04:52:32;;;;;;;1.00;0.90;;;;;;;;;;4932012;29;20349;-62
2022/03/19 04:55:01;;;;;;;9.63;1.33;;;;;;;;;;4932181;29;20246;-62
2022/03/19 04:57:28;;;;;;;3.10;1.00;;;;;;;;;;4935696;29;20214;-61
2022/03/19 04:59:55;;;;;;;2.00;1.00;;;;;;;;;;4935618;29;20208;-62
2022/03/19 05:02:24;;;;;;;0.60;0.60;;;;;;;;;;4935341;29;20209;-62
2022/03/19 05:04:52;;;;;;;0.97;0.70;;;;;;;;;;4935707;29;20262;-62
2022/03/19 05:07:20;;;;;;;3.00;1.53;;;;;;;;;;4935302;29;20212;-62
2022/03/19 05:12:33;;;;;;;0.83;0.83;;;;;;;;;;4935084;29;20595;-65
2022/03/19 05:15:00;;;;;;;2.47;0.90;;;;;;;;;;4935062;29;20250;-62
2022/03/19 05:17:27;;;;;;;0.50;0.50;;;;;;;;;;4929777;29;20216;-63
2022/03/19 05:19:54;;;;;;;0.60;0.60;;;;;;;;;;4933062;29;20214;-63
2022/03/19 05:22:21;;;;;;;2.80;1.17;;;;;;;;;;4934295;29;20223;-62
2022/03/19 05:24:48;;;;;;;0.53;0.53;;;;;;;;;;4935462;29;20241;-63
2022/03/19 05:27:16;;;;;;;1.27;1.00;;;;;;;;;;4934954;29;20315;-62
2022/03/19 05:29:44;;;;;;;1.07;0.40;;;;;;;;;;4935221;29;20235;-63
2022/03/19 05:32:11;;;;;;;1.10;1.00;;;;;;;;;;4934858;29;20217;-63
2022/03/19 05:34:38;;;;;;;0.67;0.67;;;;;;;;;;4934980;29;20240;-62
2022/03/19 05:37:06;;;;;;;1.53;0.80;;;;;;;;;;4934643;29;20219;-63
2022/03/19 05:39:33;;;;;;;0.37;0.37;;;;;;;;;;4935150;29;20219;-62
2022/03/19 05:42:00;;;;;;;0.90;0.90;;;;;;;;;;4934551;29;20598;-61
2022/03/19 05:44:27;;;;;;;6.97;1.30;;;;;;;;;;4935144;29;20247;-62
2022/03/19 05:46:57;;;;;;;6.20;1.47;;;;;;;;;;4934302;29;20228;-62
2022/03/19 05:49:25;;;;;;;2.63;0.67;;;;;;;;;;4934700;29;20213;-63
2022/03/19 05:51:52;;;;;;;0.93;0.53;;;;;;;;;;4934423;29;20217;-62
2022/03/19 05:54:19;;;;;;;0.97;0.70;;;;;;;;;;4935015;29;20210;-62
2022/03/19 05:56:46;;;;;;;5.33;0.70;;;;;;;;;;4934198;29;20212;-63
2022/03/19 05:59:13;;;;;;;3.20;1.40;;;;;;;;;;4934122;29;20299;-62
2022/03/19 06:01:42;;;;;;;1.40;0.67;;;;;;;;;;4933361;29;20213;-63
2022/03/19 06:04:10;;;;;;;2.37;1.30;;;;;;;;;;4933689;29;20236;-62
2022/03/19 06:06:37;;;;;;;3.87;0.90;;;;;;;;;;4924741;29;20210;-64
2022/03/19 06:09:05;;;;;;;2.77;0.87;;;;;;;;;;4932209;29;20215;-64
2022/03/19 06:11:32;;;;;;;5.87;0.87;;;;;;;;;;4930088;29;20262;-63
2022/03/19 06:13:59;;;;;;;0.67;0.67;;;;;;;;;;4931948;29;20270;-63
2022/03/19 06:16:27;;;;;;;0.30;0.30;;;;;;;;;;4933633;29;20752;-63
2022/03/19 06:18:54;;;;;;;0.80;0.73;;;;;;;;;;4931257;29;20210;-63
2022/03/19 06:21:23;;;;;;;3.23;0.70;;;;;;;;;;4933249;29;20744;-63
2022/03/19 06:23:50;;;;;;;0.90;0.80;;;;;;;;;;4925872;29;20321;-62
2022/03/19 06:26:20;;;;;;;4.70;0.90;;;;;;;;;;4929163;29;20624;-62
2022/03/19 06:28:47;;;;;;;3.70;0.70;;;;;;;;;;4933382;29;20304;-63
2022/03/19 06:31:14;;;;;;;0.80;0.80;;;;;;;;;;4925474;29;20216;-63
2022/03/19 06:33:41;;;;;;;1.83;1.03;;;;;;;;;;4933127;29;20243;-63
2022/03/19 06:38:55;;;;;;;0.63;0.63;;;;;;;;;;4933678;29;20669;-63
2022/03/19 06:41:22;;;;;;;1.13;0.80;;;;;;;;;;4933445;29;20357;-64
2022/03/19 06:43:49;;;;;;;0.93;0.93;;;;;;;;;;4932990;29;20263;-63
2022/03/19 06:46:16;;;;;;;1.30;1.27;;;;;;;;;;4933134;29;20223;-63
2022/03/19 06:48:43;;;;;;;1.33;1.00;;;;;;;;;;4933455;29;20267;-63
2022/03/19 06:51:10;;;;;;;1.80;0.87;;;;;;;;;;4933379;29;20235;-63
2022/03/19 06:53:39;;;;;;;1.00;0.80;;;;;;;;;;4932854;29;20682;-64
2022/03/19 06:56:07;;;;;;;0.10;0.10;;;;;;;;;;4933275;29;20707;-63
2022/03/19 06:58:34;;;;;;;0.50;0.50;;;;;;;;;;4932401;29;20208;-63
2022/03/19 07:01:03;;;;;;;2.73;1.20;;;;;;;;;;4933127;29;20230;-63
2022/03/19 07:03:30;;;;;;;2.20;0.87;;;;;;;;;;4932899;29;20220;-63
2022/03/19 07:05:57;;;;;;;4.40;1.10;;;;;;;;;;4932904;29;20220;-62
2022/03/19 07:08:24;;;;;;;1.60;1.00;;;;;;;;;;4932300;29;20234;-63
2022/03/19 07:10:52;;;;;;;0.77;0.77;;;;;;;;;;4933745;29;20211;-63
2022/03/19 07:13:20;;;;;;;0.33;0.33;;;;;;;;;;4932626;29;20321;-63
2022/03/19 07:15:48;;;;;;;2.53;1.80;;;;;;;;;;4925036;29;20615;-64
2022/03/19 07:18:15;;;;;;;1.17;1.10;;;;;;;;;;4944095;28;20207;-63
2022/03/19 07:20:42;;;;;;;0.77;0.77;;;;;;;;;;4933042;29;20215;-63
2022/03/19 07:23:09;;;;;;;1.13;1.13;;;;;;;;;;4917338;29;20271;-63
2022/03/19 07:25:36;;;;;;;2.93;1.07;;;;;;;;;;4931763;29;20240;-63
2022/03/19 07:28:05;;;;;;;1.00;1.00;;;;;;;;;;4933182;29;20216;-63
2022/03/19 07:30:34;;;;;;;1.13;0.77;;;;;;;;;;4927471;29;20234;-63
2022/03/19 07:33:01;;;;;;;2.13;0.93;;;;;;;;;;4931880;29;20276;-63
2022/03/19 07:35:28;;;;;;;3.27;1.00;;;;;;;;;;4931767;29;20210;-63
2022/03/19 07:37:57;;;;;;;1.80;1.53;;;;;;;;;;4932272;29;20215;-63
2022/03/19 07:43:06;;;;;;;1.47;1.37;;;;;;;;;;4931435;29;20242;-65
2022/03/19 07:45:34;;;;;;;1.10;1.10;;;;;;;;;;4931831;29;20235;-64
2022/03/19 07:48:01;;;;;;;0.97;0.63;;;;;;;;;;4935124;29;20215;-63
2022/03/19 07:50:28;;;;;;;1.07;0.93;;;;;;;;;;4932450;29;20208;-62
2022/03/19 07:52:56;;;;;;;1.17;1.07;;;;;;;;;;4931675;29;20742;-62
2022/03/19 07:55:24;;;;;;;10.27;1.00;;;;;;;;;;4932063;29;20219;-63
2022/03/19 07:57:51;;;;;;;1.10;1.07;;;;;;;;;;4926923;29;20232;-62
2022/03/19 08:00:18;;;;;;;1.63;1.00;;;;;;;;;;4930154;29;20204;-61
2022/03/19 08:02:46;;;;;;;3.10;1.37;;;;;;;;;;4928919;29;20211;-63
2022/03/19 08:05:14;;;;;;;1.27;0.80;;;;;;;;;;4923190;29;20240;-66
2022/03/19 08:07:41;;;;;;;4.20;0.77;;;;;;;;;;4931986;29;20212;-63
2022/03/19 08:10:09;;;;;;;0.93;0.77;;;;;;;;;;4931335;29;20218;-63
2022/03/19 08:12:36;;;;;;;2.13;1.00;;;;;;;;;;4931620;29;20215;-62
2022/03/19 08:15:04;;;;;;;1.17;1.10;;;;;;;;;;4931680;29;20296;-63
2022/03/19 08:17:31;;;;;;;4.53;1.37;;;;;;;;;;4932018;29;20215;-63
2022/03/19 08:20:00;;;;;;;2.20;1.17;;;;;;;;;;4924445;29;20205;-62
2022/03/19 08:22:27;;;;;;;0.90;0.73;;;;;;;;;;4930696;29;20208;-62
2022/03/19 08:24:54;;;;;;;0.60;0.60;;;;;;;;;;4928341;29;20232;-63
2022/03/19 08:27:22;;;;;;;5.30;1.40;;;;;;;;;;4931261;29;20267;-62
2022/03/19 08:29:49;;;;;;;1.37;1.27;;;;;;;;;;4916281;29;20701;-64
2022/03/19 08:32:16;;;;;;;1.93;1.83;;;;;;;;;;4919175;29;20230;-62
2022/03/19 08:34:44;;;;;;;0.83;0.83;;;;;;;;;;4930992;29;20283;-62
2022/03/19 08:37:12;;;;;;;1.00;1.00;;;;;;;;;;4931182;29;20207;-62
2022/03/19 08:42:24;;;;;;;0.57;0.57;;;;;;;;;;4931091;29;20207;-62
2022/03/19 08:44:56;;;;;;;2.20;0.53;;;;;;;;;;4930770;29;20227;-62
2022/03/19 08:47:23;;;;;;;0.80;0.80;;;;;;;;;;4931045;29;20204;-63
2022/03/19 08:49:50;;;;;;;1.17;1.17;;;;;;;;;;4928517;29;20379;-62
2022/03/19 08:52:18;;;;;;;2.53;1.20;;;;;;;;;;4928133;29;20220;-62
2022/03/19 08:54:45;;;;;;;2.70;1.33;;;;;;;;;;4929310;29;20230;-62
2022/03/19 08:57:14;;;;;;;1.80;1.60;;;;;;;;;;4930378;29;20214;-63
2022/03/19 08:59:41;;;;;;;1.17;1.10;;;;;;;;;;4930172;29;20239;-62
2022/03/19 09:02:08;;;;;;;1.67;1.57;;;;;;;;;;4929314;29;20207;-63
2022/03/19 09:04:35;;;;;;;1.50;1.37;;;;;;;;;;4928205;29;20243;-62
2022/03/19 09:07:02;;;;;;;4.83;1.37;;;;;;;;;;4922294;29;20317;-63
2022/03/19 09:09:30;;;;;;;1.90;1.53;;;;;;;;;;4930316;29;20214;-60
2022/03/19 09:11:57;;;;;;;4.90;1.93;;;;;;;;;;4929493;29;20608;-61
2022/03/19 09:14:24;;;;;;;3.73;1.73;;;;;;;;;;4930200;29;20212;-62
2022/03/19 09:16:51;;;;;;;1.47;0.70;;;;;;;;;;4928387;29;20242;-62
2022/03/19 09:19:18;;;;;;;0.97;0.97;;;;;;;;;;4924769;29;20266;-62
2022/03/19 09:21:45;;;;;;;2.30;1.07;;;;;;;;;;4929237;29;20212;-60
2022/03/19 09:24:15;;;;;;;1.23;1.13;;;;;;;;;;4928459;29;20230;-61
2022/03/19 09:26:43;;;;;;;2.13;1.27;;;;;;;;;;4928095;29;20227;-60
2022/03/19 09:29:10;;;;;;;2.87;1.30;;;;;;;;;;4929262;29;20235;-64
2022/03/19 09:31:37;;;;;;;3.27;1.80;;;;;;;;;;4928049;29;20208;-63
2022/03/19 09:34:04;;;;;;;2.17;1.57;;;;;;;;;;4929460;29;20235;-63
2022/03/19 09:36:31;;;;;;;4.60;1.60;;;;;;;;;;4929822;29;20508;-64
2022/03/19 09:38:58;;;;;;;1.23;1.13;;;;;;;;;;4926076;29;20650;-62
2022/03/19 09:41:25;;;;;;;2.70;1.30;;;;;;;;;;4930611;29;20702;-61
2022/03/19 09:43:57;;;;;;;0.30;0.30;;;;;;;;;;4928756;29;20208;-63
2022/03/19 09:46:24;;;;;;;2.43;1.40;;;;;;;;;;4929211;29;20235;-62
2022/03/19 09:48:53;;;;;;;1.50;0.93;;;;;;;;;;4933359;29;20215;-62
2022/03/19 09:51:27;;;;;;;1.50;0.70;;;;;;;;;;4931621;29;20565;-62
2022/03/19 09:53:56;;;;;;;0.93;0.93;;;;;;;;;;4930939;29;20223;-62
2022/03/19 09:56:23;;;;;;;2.63;1.70;;;;;;;;;;4932981;29;20204;-62
2022/03/19 09:58:51;;;;;;;4.30;0.77;;;;;;;;;;4932927;29;20216;-62
2022/03/19 10:01:20;;;;;;;0.40;0.40;;;;;;;;;;4932642;29;20216;-62
2022/03/19 10:03:50;;;;;;;0.87;0.87;;;;;;;;;;4932757;29;20216;-63
2022/03/19 10:09:02;;;;;;;3.87;1.33;;;;;;;;;;4932875;29;20215;-61
2022/03/19 10:11:31;;;;;;;0.67;0.60;;;;;;;;;;4932793;29;20219;-61
2022/03/19 10:13:59;;;;;;;0.60;0.60;;;;;;;;;;4932692;29;20246;-60
2022/03/19 10:16:28;;;;;;;1.23;0.90;;;;;;;;;;4932466;29;20212;-61
2022/03/19 10:18:56;;;;;;;0.80;0.80;;;;;;;;;;4932546;29;20578;-64
2022/03/19 10:21:23;;;;;;;4.43;1.23;;;;;;;;;;4932752;29;20381;-64
2022/03/19 10:23:50;;;;;;;2.67;1.00;;;;;;;;;;4932639;29;20702;-64
2022/03/19 10:26:24;;;;;;;0.80;0.80;;;;;;;;;;4932607;29;20232;-63
2022/03/19 10:28:57;;;;;;;1.47;1.37;;;;;;;;;;4932468;29;20224;-64
2022/03/19 10:31:31;;;;;;;0.93;0.93;;;;;;;;;;4932092;29;20219;-64
2022/03/19 10:33:58;;;;;;;2.50;0.87;;;;;;;;;;4932155;29;20239;-64
2022/03/19 10:36:31;;;;;;;2.33;0.90;;;;;;;;;;4932442;29;20648;-62
2022/03/19 10:38:58;;;;;;;0.90;0.90;;;;;;;;;;4932357;29;20239;-62
2022/03/19 10:41:26;;;;;;;1.23;1.10;;;;;;;;;;4932095;29;20219;-61
2022/03/19 10:43:53;;;;;;;0.90;0.90;;;;;;;;;;4932158;29;20246;-61
2022/03/19 10:46:20;;;;;;;0.40;0.40;;;;;;;;;;4931821;29;20633;-62
2022/03/19 10:48:54;;;;;;;1.23;0.87;;;;;;;;;;4931890;29;20242;-62
2022/03/19 10:51:21;;;;;;;0.97;0.50;;;;;;;;;;4932073;29;20216;-62
2022/03/19 10:53:50;;;;;;;0.53;0.53;;;;;;;;;;4930982;29;20212;-62
2022/03/19 10:56:17;;;;;;;0.70;0.70;;;;;;;;;;4931952;29;20283;-64
2022/03/19 10:58:44;;;;;;;23.67;2.10;;;;;;;;;;4931805;29;20571;-62
2022/03/19 11:01:12;;;;;;;1.00;1.00;;;;;;;;;;4931491;29;20216;-64
2022/03/19 11:03:40;;;;;;;2.50;0.90;;;;;;;;;;4931691;29;20587;-61
2022/03/19 11:06:09;;;;;;;0.30;0.30;;;;;;;;;;4931707;29;20809;-65
2022/03/19 11:08:38;;;;;;;1.70;1.20;;;;;;;;;;4931760;29;20334;-62
2022/03/19 11:11:08;;;;;;;0.63;0.63;;;;;;;;;;4931510;29;20748;-62
2022/03/19 11:13:41;;;;;;;1.17;1.10;;;;;;;;;;4931554;29;20520;-62
2022/03/19 11:16:10;;;;;;;0.93;0.93;;;;;;;;;;4931500;29;20636;-62
2022/03/19 11:18:37;;;;;;;1.80;0.90;;;;;;;;;;4930597;29;20216;-62
2022/03/19 11:21:04;;;;;;;2.07;0.97;;;;;;;;;;4931364;29;20735;-62
2022/03/19 11:23:43;;;;;;;1.10;1.10;;;;;;;;;;4931501;29;20215;-63
2022/03/19 11:26:12;;;;;;;1.07;0.90;;;;;;;;;;4931346;29;20749;-62
2022/03/19 11:28:40;;;;;;;1.27;1.07;;;;;;;;;;4931211;29;20216;-63
2022/03/19 11:31:08;;;;;;;1.10;1.10;;;;;;;;;;4931157;29;20222;-64
2022/03/19 11:33:36;;;;;;;1.00;1.00;;;;;;;;;;4930388;29;20248;-63
2022/03/19 11:36:05;;;;;;;0.80;0.80;;;;;;;;;;4928127;29;20208;-63
2022/03/19 11:38:34;;;;;;;1.40;1.20;;;;;;;;;;4931008;29;20212;-64
2022/03/19 11:41:25;;;;;;;2.90;2.23;;;;;;;;;;4930887;29;20306;-61
2022/03/19 11:43:52;;;;;;;1.20;1.20;;;;;;;;;;4923256;29;20219;-64
2022/03/19 11:46:19;;;;;;;2.00;1.13;;;;;;;;;;4924210;29;20236;-62
2022/03/19 11:48:48;;;;;;;17.00;1.13;;;;;;;;;;4926217;29;20219;-62
2022/03/19 11:51:33;;;;;;;5.83;0.87;;;;;;;;;;4924724;29;20207;-62
2022/03/19 11:54:03;;;;;;;4.00;1.30;;;;;;;;;;4917100;29;20334;-63
2022/03/19 11:56:51;;;;;;;1.00;1.00;;;;;;;;;;4925538;29;20553;-63
2022/03/19 11:59:35;;;;;;;0.80;0.80;;;;;;;;;;4925936;29;20215;-63
2022/03/19 12:02:06;;;;;;;1.53;1.13;;;;;;;;;;4925796;29;20214;-61
2022/03/19 12:04:42;;;;;;;0.83;0.60;;;;;;;;;;4926291;29;20765;-62
2022/03/19 12:07:09;;;;;;;0.30;0.30;;;;;;;;;;4925745;29;20238;-63
2022/03/19 12:09:59;;;;;;;0.40;0.40;;;;;;;;;;4926325;29;20227;-63
2022/03/19 12:12:27;;;;;;;0.87;0.87;;;;;;;;;;4926555;29;20218;-62
2022/03/19 12:14:56;;;;;;;1.43;0.47;;;;;;;;;;4925729;29;20223;-61
2022/03/19 12:17:23;;;;;;;0.40;0.40;;;;;;;;;;4926367;29;20207;-60
2022/03/19 12:19:54;;;;;;;0.27;0.27;;;;;;;;;;4925931;29;20788;-61
2022/03/19 12:22:31;;;;;;;3.50;0.63;;;;;;;;;;4907244;29;20244;-61
2022/03/19 12:25:04;;;;;;;0.13;0.13;;;;;;;;;;4909008;29;20677;-63
2022/03/19 12:27:32;;;;;;;0.50;0.50;;;;;;;;;;4926154;29;20589;-60
2022/03/19 12:30:00;;;;;;;3.17;0.20;;;;;;;;;;4924664;29;20623;-63
2022/03/19 12:32:27;;;;;;;4.90;0.50;;;;;;;;;;4925867;29;20219;-62
2022/03/19 12:34:58;;;;;;;0.50;0.50;;;;;;;;;;4925405;29;20680;-62
2022/03/19 12:37:25;;;;;;;1.00;0.73;;;;;;;;;;4925295;29;20211;-61
2022/03/19 12:39:58;;;;;;;0.67;0.60;;;;;;;;;;4924797;29;20219;-61
2022/03/19 12:42:30;;;;;;;0.50;0.50;;;;;;;;;;4926489;29;20615;-60
2022/03/19 12:44:59;;;;;;;0.20;0.20;;;;;;;;;;4925829;29;20204;-62
2022/03/19 12:47:27;;;;;;;1.60;0.67;;;;;;;;;;4915762;29;20235;-62
2022/03/19 12:49:55;;;;;;;0.30;0.30;;;;;;;;;;4921331;29;20207;-62
2022/03/19 12:52:23;;;;;;;1.17;0.60;;;;;;;;;;4921371;29;20212;-62
2022/03/19 12:54:55;;;;;;;0.47;0.47;;;;;;;;;;4923594;29;20218;-65
2022/03/19 12:57:23;;;;;;;1.47;0.63;;;;;;;;;;4924541;29;20215;-62
2022/03/19 12:59:52;;;;;;;0.40;0.40;;;;;;;;;;4920445;29;20235;-62
2022/03/19 13:02:20;;;;;;;5.10;2.20;;;;;;;;;;4925136;29;20748;-63
2022/03/19 13:04:48;;;;;;;5.67;1.20;;;;;;;;;;4925489;29;20216;-63
2022/03/19 13:07:17;;;;;;;0.43;0.43;;;;;;;;;;4915014;29;20231;-64
2022/03/19 13:09:44;;;;;;;0.67;0.67;;;;;;;;;;4921084;29;20216;-63
2022/03/19 13:12:16;;;;;;;0.10;0.10;;;;;;;;;;4926146;29;20219;-65
2022/03/19 13:14:48;;;;;;;0.10;0.10;;;;;;;;;;4923693;29;20215;-63
2022/03/19 13:17:16;;;;;;;0.40;0.40;;;;;;;;;;4928477;29;20302;-63
2022/03/19 13:19:44;;;;;;;2.73;0.80;;;;;;;;;;4931112;29;20566;-63
2022/03/19 13:22:18;;;;;;;0.20;0.20;;;;;;;;;;4930356;29;20216;-63
2022/03/19 13:24:46;;;;;;;0.60;0.60;;;;;;;;;;4929087;29;20957;-63
2022/03/19 13:27:14;;;;;;;0.83;0.83;;;;;;;;;;4927348;29;20315;-64
2022/03/19 13:29:41;;;;;;;0.67;0.67;;;;;;;;;;4930688;29;20231;-63
2022/03/19 13:32:09;;;;;;;0.73;0.50;;;;;;;;;;4926899;29;20587;-63
2022/03/19 13:34:38;;;;;;;0.43;0.43;;;;;;;;;;4919842;29;20239;-64
2022/03/19 13:37:07;;;;;;;0.50;0.50;;;;;;;;;;4927285;29;20219;-63
2022/03/19 13:39:35;;;;;;;2.13;0.60;;;;;;;;;;4912226;29;20216;-63
2022/03/19 13:42:04;;;;;;;0.50;0.50;;;;;;;;;;4925578;29;20220;-63
2022/03/19 13:44:32;;;;;;;4.80;0.40;;;;;;;;;;4929682;29;20208;-62
2022/03/19 13:47:06;;;;;;;0.77;0.60;;;;;;;;;;4925728;29;20653;-62
2022/03/19 13:49:36;;;;;;;0.20;0.20;;;;;;;;;;4930284;29;20601;-62
2022/03/19 13:52:03;;;;;;;1.27;0.70;;;;;;;;;;4924827;29;21075;-62
2022/03/19 13:54:44;;;;;;;0.20;0.20;;;;;;;;;;4925357;29;20211;-62
2022/03/19 13:57:13;;;;;;;0.70;0.70;;;;;;;;;;4929359;29;20203;-62
2022/03/19 13:59:42;;;;;;;0.50;0.50;;;;;;;;;;4930291;29;20410;-63
2022/03/19 14:02:09;;;;;;;0.40;0.40;;;;;;;;;;4930229;29;20670;-63
2022/03/19 14:04:37;;;;;;;0.60;0.60;;;;;;;;;;4921588;29;20213;-63
2022/03/19 14:07:05;;;;;;;0.30;0.30;;;;;;;;;;4928334;29;20231;-63
2022/03/19 14:09:32;;;;;;;0.37;0.37;;;;;;;;;;4929719;29;20199;-63
2022/03/19 14:12:01;;;;;;;0.30;0.30;;;;;;;;;;4929977;29;20698;-63
2022/03/19 14:14:28;;;;;;;0.30;0.30;;;;;;;;;;4929520;29;20218;-62
2022/03/19 14:16:59;;;;;;;0.53;0.53;;;;;;;;;;4929475;29;20215;-63
2022/03/19 14:19:26;;;;;;;2.23;0.57;;;;;;;;;;4929074;29;20207;-63
2022/03/19 14:21:53;;;;;;;0.20;0.20;;;;;;;;;;4917806;29;20219;-63
2022/03/19 14:24:20;;;;;;;1.90;0.43;;;;;;;;;;4932521;29;20254;-64
2022/03/19 14:26:50;;;;;;;0.20;0.20;;;;;;;;;;4928925;29;20294;-63
2022/03/19 14:29:18;;;;;;;0.27;0.27;;;;;;;;;;4924920;29;20625;-63
2022/03/19 14:31:46;;;;;;;0.47;0.47;;;;;;;;;;4927009;29;20657;-63
2022/03/19 14:34:13;;;;;;;0.33;0.33;;;;;;;;;;4912836;29;20241;-63
2022/03/19 14:36:41;;;;;;;0.30;0.30;;;;;;;;;;4924439;29;20536;-63
2022/03/19 14:39:08;;;;;;;1.43;0.50;;;;;;;;;;4929899;29;20222;-62
2022/03/19 14:41:36;;;;;;;0.27;0.17;;;;;;;;;;4929433;29;20214;-63
2022/03/19 14:44:05;;;;;;;2.10;1.00;;;;;;;;;;4929824;29;20215;-63
2022/03/19 14:46:33;;;;;;;1.43;0.30;;;;;;;;;;4921772;29;20338;-63
2022/03/19 14:49:00;;;;;;;1.07;0.40;;;;;;;;;;4928424;29;20231;-63
2022/03/19 14:51:27;;;;;;;0.40;0.40;;;;;;;;;;4931662;29;20216;-63
2022/03/19 14:53:54;;;;;;;3.80;0.60;;;;;;;;;;4928656;29;20230;-63
2022/03/19 14:56:21;;;;;;;0.20;0.20;;;;;;;;;;4929344;29;20299;-64
2022/03/19 14:58:50;;;;;;;0.30;0.20;;;;;;;;;;4929109;29;20204;-63
2022/03/19 15:01:17;;;;;;;0.27;0.27;;;;;;;;;;4929241;29;20735;-63
2022/03/19 15:03:45;;;;;;;0.30;0.30;;;;;;;;;;4929096;29;20247;-63
2022/03/19 15:06:13;;;;;;;0.30;0.30;;;;;;;;;;4928231;29;20208;-63
2022/03/19 15:08:40;;;;;;;1.00;0.40;;;;;;;;;;4928623;29;20215;-63